createdAt,value
2017-08-22T00:00:50.215Z,16.20
2017-08-22T00:03:24.002Z,16.30
2017-08-22T00:05:52.325Z,16.30
2017-08-22T00:08:20.697Z,16.30
2017-08-22T00:10:48.992Z,16.40
2017-08-22T00:13:17.309Z,16.40
2017-08-22T00:15:45.631Z,16.40
2017-08-22T00:18:13.936Z,16.40
2017-08-22T00:20:42.297Z,16.40
2017-08-22T00:23:10.586Z,16.40
2017-08-22T00:25:38.881Z,16.30
2017-08-22T00:28:07.217Z,16.30
2017-08-22T00:30:35.568Z,16.30
2017-08-22T00:33:03.886Z,16.30
2017-08-22T00:35:32.225Z,16.30
2017-08-22T00:38:00.547Z,16.30
2017-08-22T00:40:28.885Z,16.30
2017-08-22T00:42:57.174Z,16.30
2017-08-22T00:45:25.561Z,16.20
2017-08-22T00:47:53.880Z,16.20
2017-08-22T00:50:22.186Z,16.20
2017-08-22T00:52:50.563Z,16.20
2017-08-22T00:55:18.949Z,16.10
2017-08-22T00:57:47.240Z,16.10
2017-08-22T01:00:15.554Z,16.10
2017-08-22T01:02:43.889Z,16.00
2017-08-22T01:05:12.188Z,15.90
2017-08-22T01:07:40.487Z,15.90
2017-08-22T01:10:08.829Z,15.80
2017-08-22T01:12:37.149Z,15.80
2017-08-22T01:15:06.565Z,15.70
2017-08-22T01:17:34.953Z,15.70
2017-08-22T01:20:03.260Z,15.60
2017-08-22T01:22:31.574Z,15.50
2017-08-22T01:24:59.948Z,15.40
2017-08-22T01:27:28.446Z,15.40
2017-08-22T01:29:56.757Z,15.30
2017-08-22T01:32:25.101Z,15.30
2017-08-22T01:34:53.398Z,15.30
2017-08-22T01:37:21.738Z,15.20
2017-08-22T01:39:50.041Z,15.20
2017-08-22T01:42:18.330Z,15.20
2017-08-22T01:44:46.649Z,15.20
2017-08-22T01:47:14.938Z,15.10
2017-08-22T01:49:43.284Z,15.10
2017-08-22T01:52:11.605Z,15.10
2017-08-22T01:54:39.940Z,15.00
2017-08-22T01:57:08.265Z,15.00
2017-08-22T01:59:36.613Z,15.00
2017-08-22T02:02:04.993Z,14.90
2017-08-22T02:04:33.293Z,14.90
2017-08-22T02:07:01.600Z,14.90
2017-08-22T02:09:30.106Z,14.80
2017-08-22T02:11:58.413Z,14.80
2017-08-22T02:14:26.721Z,14.70
2017-08-22T02:16:55.043Z,14.60
2017-08-22T02:19:23.360Z,14.60
2017-08-22T02:21:51.682Z,14.50
2017-08-22T02:24:20.029Z,14.50
2017-08-22T02:26:48.348Z,14.50
2017-08-22T02:29:16.681Z,14.50
2017-08-22T02:31:44.982Z,14.50
2017-08-22T02:34:13.301Z,14.50
2017-08-22T02:36:41.637Z,14.40
2017-08-22T02:39:09.982Z,14.40
2017-08-22T02:41:38.315Z,14.30
2017-08-22T02:44:43.405Z,14.30
2017-08-22T02:47:11.734Z,14.30
2017-08-22T02:49:40.026Z,14.30
2017-08-22T02:52:08.321Z,14.10
2017-08-22T02:54:36.726Z,14.10
2017-08-22T02:57:05.386Z,14.10
2017-08-22T02:59:33.679Z,14.10
2017-08-22T03:02:01.967Z,14.10
2017-08-22T03:04:30.364Z,14.10
2017-08-22T03:06:58.721Z,14.00
2017-08-22T03:09:27.049Z,14.00
2017-08-22T03:11:55.422Z,14.00
2017-08-22T03:14:23.722Z,14.00
2017-08-22T03:16:52.067Z,14.00
2017-08-22T03:19:20.397Z,14.00
2017-08-22T03:21:48.732Z,13.90
2017-08-22T03:24:17.021Z,13.90
2017-08-22T03:26:45.314Z,13.90
2017-08-22T03:29:13.636Z,13.90
2017-08-22T03:31:41.927Z,13.90
2017-08-22T03:34:10.261Z,13.90
2017-08-22T03:36:38.556Z,13.90
2017-08-22T03:39:06.888Z,13.90
2017-08-22T03:41:35.208Z,13.90
2017-08-22T03:44:03.514Z,13.90
2017-08-22T03:46:32.001Z,13.80
2017-08-22T03:49:00.294Z,13.90
2017-08-22T03:51:28.767Z,13.80
2017-08-22T03:53:57.128Z,13.80
2017-08-22T03:56:25.481Z,13.80
2017-08-22T03:58:53.785Z,13.70
2017-08-22T04:01:22.131Z,13.70
2017-08-22T04:03:50.461Z,13.70
2017-08-22T04:06:18.782Z,13.70
2017-08-22T04:08:47.114Z,13.70
2017-08-22T04:11:15.449Z,13.60
2017-08-22T04:13:43.745Z,13.60
2017-08-22T04:16:12.055Z,13.50
2017-08-22T04:18:40.416Z,13.40
2017-08-22T04:21:08.709Z,13.40
2017-08-22T04:23:37.873Z,13.40
2017-08-22T04:26:06.177Z,13.40
2017-08-22T04:28:34.478Z,13.40
2017-08-22T04:31:02.857Z,13.40
2017-08-22T04:33:31.145Z,13.40
2017-08-22T04:35:59.473Z,13.40
2017-08-22T04:38:27.798Z,13.40
2017-08-22T04:40:56.088Z,13.40
2017-08-22T04:43:24.419Z,13.30
2017-08-22T04:45:52.734Z,13.30
2017-08-22T04:48:21.103Z,13.40
2017-08-22T04:50:49.489Z,13.40
2017-08-22T04:53:17.789Z,13.50
2017-08-22T04:55:46.077Z,13.50
2017-08-22T04:58:14.412Z,13.60
2017-08-22T05:00:42.723Z,13.60
2017-08-22T05:03:11.071Z,13.60
2017-08-22T05:05:39.361Z,13.60
2017-08-22T05:08:07.649Z,13.70
2017-08-22T05:10:35.980Z,13.70
2017-08-22T05:13:04.277Z,13.80
2017-08-22T05:15:32.606Z,13.80
2017-08-22T05:18:00.958Z,13.90
2017-08-22T05:20:29.289Z,14.00
2017-08-22T05:22:57.584Z,14.10
2017-08-22T05:25:25.905Z,14.20
2017-08-22T05:27:54.300Z,14.30
2017-08-22T05:30:22.638Z,14.40
2017-08-22T05:32:50.960Z,14.50
2017-08-22T05:35:19.375Z,14.50
2017-08-22T05:37:47.872Z,14.60
2017-08-22T05:40:16.209Z,14.70
2017-08-22T05:42:44.552Z,14.90
2017-08-22T05:45:12.852Z,15.00
2017-08-22T05:47:41.149Z,15.50
2017-08-22T05:50:09.481Z,16.20
2017-08-22T05:52:37.845Z,16.60
2017-08-22T05:55:06.194Z,16.70
2017-08-22T05:57:34.546Z,16.80
2017-08-22T06:00:02.873Z,17.40
2017-08-22T06:02:31.173Z,18.10
2017-08-22T06:04:59.556Z,18.50
2017-08-22T06:07:27.849Z,19.20
2017-08-22T06:09:56.145Z,20.00
2017-08-22T06:12:24.480Z,20.80
2017-08-22T06:14:52.841Z,21.60
2017-08-22T06:17:21.921Z,22.70
2017-08-22T06:19:50.424Z,22.60
2017-08-22T06:22:19.304Z,23.00
2017-08-22T06:24:47.661Z,23.40
2017-08-22T06:27:15.963Z,23.80
2017-08-22T06:29:44.376Z,24.00
2017-08-22T06:32:12.668Z,24.30
2017-08-22T06:34:41.005Z,24.50
2017-08-22T06:37:09.309Z,24.80
2017-08-22T06:39:37.623Z,25.20
2017-08-22T06:42:05.949Z,25.20
2017-08-22T06:44:34.286Z,24.30
2017-08-22T06:47:02.651Z,23.60
2017-08-22T06:49:30.984Z,22.90
2017-08-22T06:51:59.304Z,22.20
2017-08-22T06:54:27.602Z,21.80
2017-08-22T06:56:55.964Z,21.20
2017-08-22T06:59:24.308Z,21.00
2017-08-22T07:02:05.855Z,20.70
2017-08-22T07:04:34.146Z,20.50
2017-08-22T07:07:03.221Z,20.30
2017-08-22T07:09:35.678Z,20.20
2017-08-22T07:12:04.000Z,20.20
2017-08-22T07:14:33.492Z,20.30
2017-08-22T07:17:05.118Z,20.50
2017-08-22T07:19:33.611Z,21.10
2017-08-22T07:22:02.191Z,21.80
2017-08-22T07:24:34.161Z,22.50
2017-08-22T07:27:05.528Z,23.20
2017-08-22T07:29:34.044Z,23.80
2017-08-22T07:32:02.346Z,24.20
2017-08-22T07:34:30.697Z,24.80
2017-08-22T07:36:58.990Z,25.30
2017-08-22T07:39:27.296Z,25.70
2017-08-22T07:41:55.814Z,25.80
2017-08-22T07:44:24.196Z,26.20
2017-08-22T07:46:52.614Z,26.40
2017-08-22T07:49:20.983Z,26.90
2017-08-22T07:51:49.580Z,27.20
2017-08-22T07:54:17.893Z,27.60
2017-08-22T07:56:46.297Z,27.90
2017-08-22T07:59:14.604Z,28.30
2017-08-22T08:01:42.918Z,28.40
2017-08-22T08:04:11.260Z,28.70
2017-08-22T08:06:39.629Z,28.70
2017-08-22T08:09:07.945Z,28.90
2017-08-22T08:11:36.292Z,29.00
2017-08-22T08:14:04.625Z,29.20
2017-08-22T08:16:33.147Z,29.30
2017-08-22T08:19:01.441Z,29.70
2017-08-22T08:21:29.766Z,29.70
2017-08-22T08:23:58.099Z,30.00
2017-08-22T08:26:26.446Z,30.20
2017-08-22T08:28:54.750Z,29.40
2017-08-22T08:31:23.108Z,28.80
2017-08-22T08:33:51.406Z,28.30
2017-08-22T08:36:19.705Z,28.00
2017-08-22T08:38:48.037Z,27.80
2017-08-22T08:41:16.334Z,27.40
2017-08-22T08:43:44.745Z,27.40
2017-08-22T08:46:13.028Z,27.30
2017-08-22T08:48:41.335Z,27.60
2017-08-22T08:51:09.657Z,27.90
2017-08-22T08:53:37.991Z,28.10
2017-08-22T08:56:06.309Z,28.20
2017-08-22T08:58:34.598Z,28.30
2017-08-22T09:01:02.917Z,28.30
2017-08-22T09:03:31.254Z,28.20
2017-08-22T09:05:59.594Z,28.20
2017-08-22T09:08:27.919Z,28.30
2017-08-22T09:10:56.223Z,28.50
2017-08-22T09:13:24.593Z,28.50
2017-08-22T09:15:52.916Z,28.50
2017-08-22T09:18:21.234Z,28.60
2017-08-22T09:20:49.574Z,28.70
2017-08-22T09:23:18.005Z,28.80
2017-08-22T09:25:46.316Z,28.70
2017-08-22T09:28:14.653Z,28.30
2017-08-22T09:30:42.976Z,28.20
2017-08-22T09:33:11.282Z,28.20
2017-08-22T09:35:39.630Z,28.40
2017-08-22T09:38:07.937Z,28.40
2017-08-22T09:40:36.269Z,28.40
2017-08-22T09:43:04.567Z,28.30
2017-08-22T09:45:32.929Z,28.20
2017-08-22T09:48:01.268Z,28.30
2017-08-22T09:50:29.597Z,28.20
2017-08-22T09:52:57.901Z,28.10
2017-08-22T09:55:26.217Z,28.10
2017-08-22T09:57:54.545Z,28.10
2017-08-22T10:00:22.880Z,28.00
2017-08-22T10:02:51.213Z,28.00
2017-08-22T10:05:19.536Z,28.30
2017-08-22T10:07:47.914Z,28.40
2017-08-22T10:10:16.274Z,28.90
2017-08-22T10:12:44.597Z,29.50
2017-08-22T10:15:12.900Z,30.10
2017-08-22T10:17:41.221Z,30.40
2017-08-22T10:20:09.553Z,30.50
2017-08-22T10:22:37.890Z,30.30
2017-08-22T10:25:06.243Z,30.00
2017-08-22T10:27:34.826Z,29.70
2017-08-22T10:30:03.151Z,29.30
2017-08-22T10:32:31.450Z,29.00
2017-08-22T10:34:59.814Z,29.10
2017-08-22T10:37:28.137Z,29.10
2017-08-22T10:39:56.508Z,28.90
2017-08-22T10:42:24.832Z,28.90
2017-08-22T10:44:53.178Z,28.80
2017-08-22T10:47:21.506Z,28.90
2017-08-22T10:49:49.830Z,28.80
2017-08-22T10:52:18.127Z,28.70
2017-08-22T10:54:46.471Z,29.00
2017-08-22T10:57:14.774Z,29.00
2017-08-22T10:59:43.074Z,28.80
2017-08-22T11:02:11.406Z,28.70
2017-08-22T11:04:39.703Z,28.80
2017-08-22T11:07:08.037Z,28.70
2017-08-22T11:09:36.557Z,28.60
2017-08-22T11:12:04.892Z,28.80
2017-08-22T11:14:33.240Z,28.80
2017-08-22T11:17:01.579Z,28.40
2017-08-22T11:19:29.872Z,27.80
2017-08-22T11:21:58.169Z,27.50
2017-08-22T11:24:26.588Z,27.50
2017-08-22T11:26:54.886Z,27.80
2017-08-22T11:29:23.170Z,27.70
2017-08-22T11:31:51.491Z,27.70
2017-08-22T11:34:19.849Z,27.80
2017-08-22T11:36:48.145Z,27.70
2017-08-22T11:39:16.485Z,27.70
2017-08-22T11:41:44.787Z,27.40
2017-08-22T11:44:13.112Z,27.30
2017-08-22T11:46:41.470Z,27.20
2017-08-22T11:49:09.818Z,27.20
2017-08-22T11:51:38.134Z,27.20
2017-08-22T11:54:06.510Z,27.10
2017-08-22T11:56:34.855Z,27.10
2017-08-22T11:59:03.153Z,27.10
2017-08-22T12:01:31.447Z,27.10
2017-08-22T12:03:59.802Z,27.10
2017-08-22T12:06:28.100Z,27.10
2017-08-22T12:08:56.409Z,27.00
2017-08-22T12:11:24.742Z,26.80
2017-08-22T12:13:53.038Z,26.60
2017-08-22T12:16:21.355Z,26.50
2017-08-22T12:18:50.482Z,26.70
2017-08-22T12:21:18.838Z,26.90
2017-08-22T12:23:47.174Z,27.00
2017-08-22T12:26:15.493Z,27.20
2017-08-22T12:28:43.786Z,27.40
2017-08-22T12:31:12.118Z,27.10
2017-08-22T12:33:40.478Z,26.90
2017-08-22T12:36:08.861Z,26.80
2017-08-22T12:38:37.205Z,26.90
2017-08-22T12:41:05.513Z,26.90
2017-08-22T12:43:33.841Z,27.00
2017-08-22T12:46:02.144Z,26.80
2017-08-22T12:48:30.869Z,26.80
2017-08-22T12:50:59.155Z,26.80
2017-08-22T12:53:27.449Z,26.80
2017-08-22T12:55:55.772Z,26.70
2017-08-22T12:58:24.082Z,26.60
2017-08-22T13:00:52.417Z,26.50
2017-08-22T13:03:20.724Z,26.50
2017-08-22T13:05:49.047Z,26.60
2017-08-22T13:08:17.337Z,26.60
2017-08-22T13:10:45.665Z,26.60
2017-08-22T13:13:14.001Z,26.80
2017-08-22T13:15:42.307Z,26.80
2017-08-22T13:18:10.641Z,26.40
2017-08-22T13:20:39.017Z,26.30
2017-08-22T13:23:07.317Z,26.10
2017-08-22T13:25:35.901Z,26.00
2017-08-22T13:28:04.219Z,25.90
2017-08-22T13:30:32.543Z,25.90
2017-08-22T13:33:00.866Z,25.80
2017-08-22T13:35:29.153Z,25.90
2017-08-22T13:37:57.541Z,25.90
2017-08-22T13:40:25.837Z,26.00
2017-08-22T13:42:54.159Z,26.00
2017-08-22T13:45:22.466Z,26.20
2017-08-22T13:47:50.793Z,26.10
2017-08-22T13:50:19.140Z,26.00
2017-08-22T13:52:47.466Z,25.50
2017-08-22T13:55:15.768Z,25.20
2017-08-22T13:57:44.085Z,25.20
2017-08-22T14:00:12.381Z,25.40
2017-08-22T14:02:40.730Z,25.50
2017-08-22T14:05:09.026Z,25.60
2017-08-22T14:07:37.517Z,25.70
2017-08-22T14:10:05.866Z,25.50
2017-08-22T14:12:34.181Z,25.50
2017-08-22T14:15:02.480Z,25.30
2017-08-22T14:17:30.806Z,25.50
2017-08-22T14:19:59.129Z,25.50
2017-08-22T14:22:27.512Z,25.60
2017-08-22T14:24:55.841Z,25.50
2017-08-22T14:27:24.145Z,25.40
2017-08-22T14:29:52.523Z,25.50
2017-08-22T14:32:20.820Z,25.50
2017-08-22T14:34:49.161Z,25.50
2017-08-22T14:37:17.541Z,25.40
2017-08-22T14:39:45.870Z,25.20
2017-08-22T14:42:14.157Z,25.20
2017-08-22T14:44:42.456Z,25.20
2017-08-22T14:47:10.797Z,25.20
2017-08-22T14:49:39.089Z,25.30
2017-08-22T14:52:07.382Z,25.40
2017-08-22T14:54:35.709Z,25.30
2017-08-22T14:57:04.028Z,25.20
2017-08-22T14:59:32.347Z,25.10
2017-08-22T15:02:00.688Z,25.00
2017-08-22T15:04:29.080Z,24.70
2017-08-22T15:06:57.416Z,24.70
2017-08-22T15:09:25.798Z,24.60
2017-08-22T15:11:54.153Z,24.50
2017-08-22T15:14:22.459Z,24.50
2017-08-22T15:16:50.845Z,24.50
2017-08-22T15:19:19.168Z,24.60
2017-08-22T15:21:47.505Z,24.60
2017-08-22T15:24:15.804Z,24.50
2017-08-22T15:26:44.108Z,24.50
2017-08-22T15:29:12.433Z,24.30
2017-08-22T15:31:40.718Z,24.30
2017-08-22T15:34:09.078Z,24.20
2017-08-22T15:36:37.420Z,24.20
2017-08-22T15:39:05.719Z,24.30
2017-08-22T15:41:34.252Z,24.40
2017-08-22T15:44:02.542Z,24.40
2017-08-22T15:46:30.913Z,24.50
2017-08-22T15:48:59.236Z,24.50
2017-08-22T15:51:27.528Z,24.50
2017-08-22T15:53:55.865Z,24.60
2017-08-22T15:56:24.165Z,24.50
2017-08-22T15:58:52.461Z,24.40
2017-08-22T16:01:20.884Z,24.50
2017-08-22T16:03:49.214Z,24.40
2017-08-22T16:06:17.597Z,24.30
2017-08-22T16:08:45.901Z,24.20
2017-08-22T16:11:14.220Z,24.20
2017-08-22T16:13:42.555Z,24.10
2017-08-22T16:16:10.847Z,24.10
2017-08-22T16:18:39.177Z,24.00
2017-08-22T16:21:07.477Z,23.90
2017-08-22T16:23:35.862Z,23.90
2017-08-22T16:26:04.196Z,23.80
2017-08-22T16:28:32.502Z,23.80
2017-08-22T16:31:00.825Z,23.80
2017-08-22T16:33:29.129Z,23.80
2017-08-22T16:35:57.532Z,23.70
2017-08-22T16:38:25.849Z,23.60
2017-08-22T16:40:54.173Z,23.50
2017-08-22T16:43:22.471Z,23.50
2017-08-22T16:45:50.812Z,23.50
2017-08-22T16:48:19.162Z,23.50
2017-08-22T16:50:47.480Z,23.50
2017-08-22T16:53:15.809Z,23.50
2017-08-22T16:55:44.182Z,23.50
2017-08-22T16:58:12.473Z,23.40
2017-08-22T17:00:40.805Z,23.40
2017-08-22T17:03:09.142Z,23.30
2017-08-22T17:05:37.561Z,23.30
2017-08-22T17:08:05.896Z,23.30
2017-08-22T17:10:34.223Z,23.10
2017-08-22T17:13:02.601Z,23.00
2017-08-22T17:15:30.909Z,23.00
2017-08-22T17:17:59.228Z,23.00
2017-08-22T17:20:27.527Z,23.00
2017-08-22T17:22:55.874Z,22.90
2017-08-22T17:25:24.449Z,22.80
2017-08-22T17:27:52.737Z,22.70
2017-08-22T17:30:21.126Z,22.60
2017-08-22T17:32:49.467Z,22.50
2017-08-22T17:35:17.784Z,22.40
2017-08-22T17:37:46.157Z,22.30
2017-08-22T17:40:14.457Z,22.20
2017-08-22T17:42:42.830Z,22.10
2017-08-22T17:45:11.192Z,22.10
2017-08-22T17:47:39.587Z,21.90
2017-08-22T17:50:07.974Z,21.80
2017-08-22T17:52:36.436Z,21.70
2017-08-22T17:55:04.758Z,21.70
2017-08-22T17:57:33.094Z,21.60
2017-08-22T18:00:01.384Z,21.60
2017-08-22T18:02:29.702Z,21.60
2017-08-22T18:04:58.048Z,21.50
2017-08-22T18:07:26.348Z,21.50
2017-08-22T18:09:54.648Z,21.40
2017-08-22T18:12:22.968Z,21.30
2017-08-22T18:14:51.273Z,21.30
2017-08-22T18:17:19.626Z,21.30
2017-08-22T18:19:47.983Z,21.20
2017-08-22T18:22:16.348Z,21.10
2017-08-22T18:24:44.663Z,21.00
2017-08-22T18:27:13.011Z,20.90
2017-08-22T18:29:41.370Z,20.90
2017-08-22T18:32:09.732Z,20.90
2017-08-22T18:34:38.064Z,20.80
2017-08-22T18:37:06.361Z,20.80
2017-08-22T18:39:34.692Z,20.80
2017-08-22T18:42:03.040Z,20.80
2017-08-22T18:44:31.409Z,20.70
2017-08-22T18:46:59.785Z,20.70
2017-08-22T18:49:28.148Z,20.60
2017-08-22T18:51:56.443Z,20.60
2017-08-22T18:54:24.787Z,20.60
2017-08-22T18:56:53.195Z,20.50
2017-08-22T18:59:21.520Z,20.40
2017-08-22T19:01:50.337Z,20.40
2017-08-22T19:04:18.632Z,20.30
2017-08-22T19:06:46.939Z,20.10
2017-08-22T19:09:15.284Z,20.10
2017-08-22T19:11:43.585Z,20.00
2017-08-22T19:14:11.906Z,20.00
2017-08-22T19:16:40.402Z,20.00
2017-08-22T19:19:08.706Z,20.00
2017-08-22T19:21:37.040Z,19.90
2017-08-22T19:24:05.396Z,19.90
2017-08-22T19:26:33.690Z,19.80
2017-08-22T19:29:02.126Z,19.70
2017-08-22T19:31:30.422Z,19.60
2017-08-22T19:33:58.750Z,19.60
2017-08-22T19:36:27.889Z,19.60
2017-08-22T19:38:56.184Z,19.50
2017-08-22T19:41:24.491Z,19.60
2017-08-22T19:43:52.842Z,19.50
2017-08-22T19:46:21.190Z,19.50
2017-08-22T19:48:49.560Z,19.50
2017-08-22T19:51:18.019Z,19.50
2017-08-22T19:53:46.374Z,19.30
2017-08-22T19:56:14.722Z,19.30
2017-08-22T19:58:43.017Z,19.20
2017-08-22T20:01:11.314Z,19.10
2017-08-22T20:03:40.012Z,19.10
2017-08-22T20:06:08.313Z,19.10
2017-08-22T20:08:36.645Z,19.10
2017-08-22T20:11:05.041Z,19.10
2017-08-22T20:13:33.367Z,19.00
2017-08-22T20:16:01.713Z,19.00
2017-08-22T20:18:30.019Z,18.90
2017-08-22T20:20:58.325Z,18.90
2017-08-22T20:23:26.645Z,18.90
2017-08-22T20:25:54.952Z,18.80
2017-08-22T20:28:23.321Z,18.70
2017-08-22T20:30:51.627Z,18.60
2017-08-22T20:33:19.932Z,18.50
2017-08-22T20:35:48.257Z,18.40
2017-08-22T20:38:16.553Z,18.40
2017-08-22T20:40:44.892Z,18.40
2017-08-22T20:43:13.198Z,18.40
2017-08-22T20:45:41.559Z,18.40
2017-08-22T20:48:09.885Z,18.40
2017-08-22T20:50:38.202Z,18.40
2017-08-22T20:53:06.555Z,18.30
2017-08-22T20:55:34.878Z,18.30
2017-08-22T20:58:03.276Z,18.30
2017-08-22T21:00:31.623Z,18.20
2017-08-22T21:02:59.961Z,18.10
2017-08-22T21:05:28.310Z,18.00
2017-08-22T21:07:56.611Z,18.00
2017-08-22T21:10:24.898Z,18.00
2017-08-22T21:12:53.280Z,18.00
2017-08-22T21:15:21.587Z,18.00
2017-08-22T21:17:49.893Z,18.00
2017-08-22T21:20:18.248Z,17.90
2017-08-22T21:22:46.568Z,17.80
2017-08-22T21:25:14.869Z,17.80
2017-08-22T21:27:43.204Z,17.80
2017-08-22T21:30:11.509Z,17.80
2017-08-22T21:32:40.647Z,17.80
2017-08-22T21:35:08.988Z,17.80
2017-08-22T21:37:37.286Z,17.80
2017-08-22T21:40:05.657Z,17.80
2017-08-22T21:42:33.954Z,17.70
2017-08-22T21:45:02.302Z,17.70
2017-08-22T21:47:30.633Z,17.70
2017-08-22T21:49:58.924Z,17.70
2017-08-22T21:52:27.273Z,17.70
2017-08-22T21:54:55.590Z,17.70
2017-08-22T21:57:23.941Z,17.60
2017-08-22T21:59:52.266Z,17.60
2017-08-22T22:02:20.585Z,17.60
2017-08-22T22:04:48.935Z,17.60
2017-08-22T22:07:17.246Z,17.50
2017-08-22T22:09:45.589Z,17.50
2017-08-22T22:12:13.957Z,17.50
2017-08-22T22:14:42.359Z,17.50
2017-08-22T22:17:10.677Z,17.50
2017-08-22T22:19:39.010Z,17.50
2017-08-22T22:22:07.313Z,17.50
2017-08-22T22:24:36.730Z,17.50
2017-08-22T22:27:05.041Z,17.50
2017-08-22T22:29:33.462Z,17.50
2017-08-22T22:32:01.770Z,17.40
2017-08-22T22:34:30.117Z,17.40
2017-08-22T22:36:58.485Z,17.40
2017-08-22T22:39:26.893Z,17.40
2017-08-22T22:41:55.219Z,17.40
2017-08-22T22:44:23.541Z,17.30
2017-08-22T22:46:51.858Z,17.30
2017-08-22T22:49:20.157Z,17.30
2017-08-22T22:51:48.494Z,17.30
2017-08-22T22:54:16.837Z,17.20
2017-08-22T22:56:45.146Z,17.20
2017-08-22T22:59:13.454Z,17.20
2017-08-22T23:01:41.773Z,17.10
2017-08-22T23:04:10.122Z,17.10
2017-08-22T23:06:38.465Z,17.10
2017-08-22T23:09:06.791Z,17.10
2017-08-22T23:11:35.138Z,17.10
2017-08-22T23:14:03.442Z,17.10
2017-08-22T23:16:31.754Z,17.10
2017-08-22T23:19:00.095Z,17.20
2017-08-22T23:21:28.412Z,17.10
2017-08-22T23:23:56.773Z,17.10
2017-08-22T23:26:25.134Z,17.10
2017-08-22T23:28:53.435Z,17.00
2017-08-22T23:31:21.829Z,17.00
2017-08-22T23:33:50.131Z,17.00
2017-08-22T23:36:18.520Z,16.90
2017-08-22T23:38:46.868Z,16.90
2017-08-22T23:41:15.173Z,16.80
2017-08-22T23:43:43.520Z,16.80
2017-08-22T23:46:11.900Z,16.70
2017-08-22T23:48:40.196Z,16.60
2017-08-22T23:51:08.540Z,16.60
2017-08-22T23:53:36.852Z,16.60
2017-08-22T23:56:05.217Z,16.60
2017-08-22T23:58:33.534Z,16.50
